sensor_id;sensor_type;location;lat;lon;timestamp;P1;durP1;ratioP1;P2;durP2;ratioP2
6280;SDS011;3173;48.204;11.612;2023-07-13T00:01:47;5.37;;;3.50;;
6280;SDS011;3173;48.204;11.612;2023-07-13T00:04:19;5.60;;;3.30;;
6280;SDS011;3173;48.204;11.612;2023-07-13T00:06:46;4.17;;;2.90;;
6280;SDS011;3173;48.204;11.612;2023-07-13T00:09:13;5.63;;;3.10;;
6280;SDS011;3173;48.204;11.612;2023-07-13T00:11:39;5.90;;;3.20;;
6280;SDS011;3173;48.204;11.612;2023-07-13T00:14:06;6.50;;;3.07;;
6280;SDS011;3173;48.204;11.612;2023-07-13T00:16:36;5.60;;;3.17;;
6280;SDS011;3173;48.204;11.612;2023-07-13T00:19:02;3.43;;;2.90;;
6280;SDS011;3173;48.204;11.612;2023-07-13T00:21:28;6.70;;;2.73;;
6280;SDS011;3173;48.204;11.612;2023-07-13T00:23:55;5.30;;;3.13;;
6280;SDS011;3173;48.204;11.612;2023-07-13T00:26:21;2.80;;;2.43;;
6280;SDS011;3173;48.204;11.612;2023-07-13T00:28:47;4.40;;;2.90;;
6280;SDS011;3173;48.204;11.612;2023-07-13T00:31:13;5.40;;;3.00;;
6280;SDS011;3173;48.204;11.612;2023-07-13T00:33:40;3.57;;;2.67;;
6280;SDS011;3173;48.204;11.612;2023-07-13T00:36:07;4.23;;;2.90;;
6280;SDS011;3173;48.204;11.612;2023-07-13T00:38:34;4.93;;;3.00;;
6280;SDS011;3173;48.204;11.612;2023-07-13T00:41:00;4.20;;;2.80;;
6280;SDS011;3173;48.204;11.612;2023-07-13T00:43:28;15.83;;;3.23;;
6280;SDS011;3173;48.204;11.612;2023-07-13T00:48:27;5.07;;;2.70;;
6280;SDS011;3173;48.204;11.612;2023-07-13T00:50:55;3.93;;;2.97;;
6280;SDS011;3173;48.204;11.612;2023-07-13T00:53:22;4.73;;;2.37;;
6280;SDS011;3173;48.204;11.612;2023-07-13T00:55:50;3.23;;;2.20;;
6280;SDS011;3173;48.204;11.612;2023-07-13T00:58:17;4.43;;;2.80;;
6280;SDS011;3173;48.204;11.612;2023-07-13T01:00:43;6.77;;;2.50;;
6280;SDS011;3173;48.204;11.612;2023-07-13T01:03:09;3.83;;;2.60;;
6280;SDS011;3173;48.204;11.612;2023-07-13T01:05:36;3.03;;;2.07;;
6280;SDS011;3173;48.204;11.612;2023-07-13T01:08:02;4.40;;;2.70;;
6280;SDS011;3173;48.204;11.612;2023-07-13T01:10:30;5.77;;;2.53;;
6280;SDS011;3173;48.204;11.612;2023-07-13T01:13:04;5.10;;;3.00;;
6280;SDS011;3173;48.204;11.612;2023-07-13T01:18:04;4.97;;;2.57;;
6280;SDS011;3173;48.204;11.612;2023-07-13T01:20:30;4.17;;;2.70;;
6280;SDS011;3173;48.204;11.612;2023-07-13T01:23:01;2.97;;;2.00;;
6280;SDS011;3173;48.204;11.612;2023-07-13T01:25:27;4.93;;;2.60;;
6280;SDS011;3173;48.204;11.612;2023-07-13T01:27:54;3.50;;;2.20;;
6280;SDS011;3173;48.204;11.612;2023-07-13T01:30:20;3.50;;;2.23;;
6280;SDS011;3173;48.204;11.612;2023-07-13T01:32:47;5.53;;;3.10;;
6280;SDS011;3173;48.204;11.612;2023-07-13T01:35:13;3.90;;;2.57;;
6280;SDS011;3173;48.204;11.612;2023-07-13T01:37:39;6.47;;;2.17;;
6280;SDS011;3173;48.204;11.612;2023-07-13T01:40:05;3.90;;;2.37;;
6280;SDS011;3173;48.204;11.612;2023-07-13T01:42:33;4.77;;;2.50;;
6280;SDS011;3173;48.204;11.612;2023-07-13T01:44:59;5.63;;;2.80;;
6280;SDS011;3173;48.204;11.612;2023-07-13T01:47:25;8.00;;;2.70;;
6280;SDS011;3173;48.204;11.612;2023-07-13T01:49:53;9.43;;;2.70;;
6280;SDS011;3173;48.204;11.612;2023-07-13T01:52:19;4.47;;;2.90;;
6280;SDS011;3173;48.204;11.612;2023-07-13T01:54:45;4.43;;;2.67;;
6280;SDS011;3173;48.204;11.612;2023-07-13T01:57:11;5.20;;;2.70;;
6280;SDS011;3173;48.204;11.612;2023-07-13T01:59:37;5.20;;;2.80;;
6280;SDS011;3173;48.204;11.612;2023-07-13T02:02:04;13.17;;;4.00;;
6280;SDS011;3173;48.204;11.612;2023-07-13T02:04:30;6.20;;;3.00;;
6280;SDS011;3173;48.204;11.612;2023-07-13T02:06:56;6.40;;;3.20;;
6280;SDS011;3173;48.204;11.612;2023-07-13T02:09:22;10.53;;;5.00;;
6280;SDS011;3173;48.204;11.612;2023-07-13T02:11:48;7.70;;;4.13;;
6280;SDS011;3173;48.204;11.612;2023-07-13T02:14:14;6.07;;;3.50;;
6280;SDS011;3173;48.204;11.612;2023-07-13T02:16:40;9.30;;;3.00;;
6280;SDS011;3173;48.204;11.612;2023-07-13T02:19:07;6.20;;;3.17;;
6280;SDS011;3173;48.204;11.612;2023-07-13T02:21:34;6.90;;;3.30;;
6280;SDS011;3173;48.204;11.612;2023-07-13T02:24:00;7.13;;;3.00;;
6280;SDS011;3173;48.204;11.612;2023-07-13T02:26:26;7.33;;;3.00;;
6280;SDS011;3173;48.204;11.612;2023-07-13T02:28:52;5.20;;;2.97;;
6280;SDS011;3173;48.204;11.612;2023-07-13T02:31:19;7.97;;;3.40;;
6280;SDS011;3173;48.204;11.612;2023-07-13T02:33:45;6.23;;;3.60;;
6280;SDS011;3173;48.204;11.612;2023-07-13T02:36:11;5.47;;;3.00;;
6280;SDS011;3173;48.204;11.612;2023-07-13T02:38:39;5.90;;;3.50;;
6280;SDS011;3173;48.204;11.612;2023-07-13T02:41:06;5.90;;;2.87;;
6280;SDS011;3173;48.204;11.612;2023-07-13T02:43:33;10.13;;;3.47;;
6280;SDS011;3173;48.204;11.612;2023-07-13T02:46:00;6.40;;;3.90;;
6280;SDS011;3173;48.204;11.612;2023-07-13T02:48:32;7.83;;;3.90;;
6280;SDS011;3173;48.204;11.612;2023-07-13T02:50:58;7.77;;;4.20;;
6280;SDS011;3173;48.204;11.612;2023-07-13T02:53:24;5.93;;;4.10;;
6280;SDS011;3173;48.204;11.612;2023-07-13T02:55:50;7.77;;;3.80;;
6280;SDS011;3173;48.204;11.612;2023-07-13T02:58:16;7.00;;;4.70;;
6280;SDS011;3173;48.204;11.612;2023-07-13T03:00:43;8.40;;;3.90;;
6280;SDS011;3173;48.204;11.612;2023-07-13T03:03:11;7.93;;;4.67;;
6280;SDS011;3173;48.204;11.612;2023-07-13T03:05:40;6.50;;;4.80;;
6280;SDS011;3173;48.204;11.612;2023-07-13T03:08:07;7.03;;;4.00;;
6280;SDS011;3173;48.204;11.612;2023-07-13T03:10:33;8.97;;;4.67;;
6280;SDS011;3173;48.204;11.612;2023-07-13T03:13:00;8.33;;;4.33;;
6280;SDS011;3173;48.204;11.612;2023-07-13T03:15:26;8.10;;;4.50;;
6280;SDS011;3173;48.204;11.612;2023-07-13T03:17:52;9.67;;;4.23;;
6280;SDS011;3173;48.204;11.612;2023-07-13T03:20:18;10.03;;;4.30;;
6280;SDS011;3173;48.204;11.612;2023-07-13T03:22:45;12.47;;;4.73;;
6280;SDS011;3173;48.204;11.612;2023-07-13T03:25:11;7.60;;;4.30;;
6280;SDS011;3173;48.204;11.612;2023-07-13T03:27:37;8.13;;;4.57;;
6280;SDS011;3173;48.204;11.612;2023-07-13T03:30:04;8.60;;;4.90;;
6280;SDS011;3173;48.204;11.612;2023-07-13T03:32:30;5.90;;;4.10;;
6280;SDS011;3173;48.204;11.612;2023-07-13T03:34:56;7.10;;;4.00;;
6280;SDS011;3173;48.204;11.612;2023-07-13T03:37:24;10.20;;;4.60;;
6280;SDS011;3173;48.204;11.612;2023-07-13T03:39:50;6.47;;;4.13;;
6280;SDS011;3173;48.204;11.612;2023-07-13T03:42:17;5.30;;;3.80;;
6280;SDS011;3173;48.204;11.612;2023-07-13T03:44:43;6.90;;;4.40;;
6280;SDS011;3173;48.204;11.612;2023-07-13T03:47:17;11.20;;;4.17;;
6280;SDS011;3173;48.204;11.612;2023-07-13T03:49:44;5.70;;;3.40;;
6280;SDS011;3173;48.204;11.612;2023-07-13T03:52:11;11.07;;;4.00;;
6280;SDS011;3173;48.204;11.612;2023-07-13T03:54:37;6.67;;;3.70;;
6280;SDS011;3173;48.204;11.612;2023-07-13T03:57:03;6.33;;;4.07;;
6280;SDS011;3173;48.204;11.612;2023-07-13T03:59:29;9.47;;;4.17;;
6280;SDS011;3173;48.204;11.612;2023-07-13T04:01:56;4.60;;;4.07;;
6280;SDS011;3173;48.204;11.612;2023-07-13T04:04:22;5.37;;;3.80;;
6280;SDS011;3173;48.204;11.612;2023-07-13T04:06:48;5.23;;;3.37;;
6280;SDS011;3173;48.204;11.612;2023-07-13T04:09:14;9.93;;;3.90;;
6280;SDS011;3173;48.204;11.612;2023-07-13T04:11:40;5.87;;;3.67;;
6280;SDS011;3173;48.204;11.612;2023-07-13T04:14:06;6.17;;;3.53;;
6280;SDS011;3173;48.204;11.612;2023-07-13T04:16:32;5.50;;;3.67;;
6280;SDS011;3173;48.204;11.612;2023-07-13T04:18:58;4.77;;;3.40;;
6280;SDS011;3173;48.204;11.612;2023-07-13T04:21:25;5.77;;;3.43;;
6280;SDS011;3173;48.204;11.612;2023-07-13T04:23:52;5.10;;;3.23;;
6280;SDS011;3173;48.204;11.612;2023-07-13T04:26:18;6.13;;;3.40;;
6280;SDS011;3173;48.204;11.612;2023-07-13T04:28:49;5.97;;;3.10;;
6280;SDS011;3173;48.204;11.612;2023-07-13T04:31:15;4.90;;;2.90;;
6280;SDS011;3173;48.204;11.612;2023-07-13T04:33:41;5.33;;;2.60;;
6280;SDS011;3173;48.204;11.612;2023-07-13T04:36:08;5.90;;;3.33;;
6280;SDS011;3173;48.204;11.612;2023-07-13T04:38:34;10.33;;;3.33;;
6280;SDS011;3173;48.204;11.612;2023-07-13T04:41:01;4.00;;;2.60;;
6280;SDS011;3173;48.204;11.612;2023-07-13T04:43:28;7.80;;;3.70;;
6280;SDS011;3173;48.204;11.612;2023-07-13T04:45:54;9.20;;;3.20;;
6280;SDS011;3173;48.204;11.612;2023-07-13T04:48:20;7.60;;;3.13;;
6280;SDS011;3173;48.204;11.612;2023-07-13T04:50:46;4.67;;;3.07;;
6280;SDS011;3173;48.204;11.612;2023-07-13T04:53:14;6.17;;;2.67;;
6280;SDS011;3173;48.204;11.612;2023-07-13T04:55:40;4.37;;;2.70;;
6280;SDS011;3173;48.204;11.612;2023-07-13T04:58:06;5.83;;;2.80;;
6280;SDS011;3173;48.204;11.612;2023-07-13T05:00:33;8.37;;;2.43;;
6280;SDS011;3173;48.204;11.612;2023-07-13T05:02:59;3.53;;;2.70;;
6280;SDS011;3173;48.204;11.612;2023-07-13T05:05:26;6.63;;;2.80;;
6280;SDS011;3173;48.204;11.612;2023-07-13T05:07:52;3.60;;;2.57;;
6280;SDS011;3173;48.204;11.612;2023-07-13T05:10:19;5.43;;;2.77;;
6280;SDS011;3173;48.204;11.612;2023-07-13T05:12:45;3.70;;;2.60;;
6280;SDS011;3173;48.204;11.612;2023-07-13T05:15:11;8.47;;;2.70;;
6280;SDS011;3173;48.204;11.612;2023-07-13T05:17:37;4.90;;;2.33;;
6280;SDS011;3173;48.204;11.612;2023-07-13T05:20:07;6.60;;;3.00;;
6280;SDS011;3173;48.204;11.612;2023-07-13T05:22:34;8.20;;;3.77;;
6280;SDS011;3173;48.204;11.612;2023-07-13T05:25:03;4.53;;;2.50;;
6280;SDS011;3173;48.204;11.612;2023-07-13T05:27:29;6.07;;;3.40;;
6280;SDS011;3173;48.204;11.612;2023-07-13T05:29:55;5.50;;;3.30;;
6280;SDS011;3173;48.204;11.612;2023-07-13T05:32:21;3.93;;;2.60;;
6280;SDS011;3173;48.204;11.612;2023-07-13T05:34:48;4.30;;;2.60;;
6280;SDS011;3173;48.204;11.612;2023-07-13T05:37:14;5.50;;;2.87;;
6280;SDS011;3173;48.204;11.612;2023-07-13T05:39:40;7.00;;;2.97;;
6280;SDS011;3173;48.204;11.612;2023-07-13T05:42:06;6.57;;;2.90;;
6280;SDS011;3173;48.204;11.612;2023-07-13T05:44:32;5.53;;;3.13;;
6280;SDS011;3173;48.204;11.612;2023-07-13T05:46:58;5.93;;;3.20;;
6280;SDS011;3173;48.204;11.612;2023-07-13T05:49:24;2.80;;;2.40;;
6280;SDS011;3173;48.204;11.612;2023-07-13T05:51:51;5.83;;;2.60;;
6280;SDS011;3173;48.204;11.612;2023-07-13T05:54:17;3.93;;;2.50;;
6280;SDS011;3173;48.204;11.612;2023-07-13T05:56:43;5.90;;;2.50;;
6280;SDS011;3173;48.204;11.612;2023-07-13T05:59:09;6.50;;;2.80;;
6280;SDS011;3173;48.204;11.612;2023-07-13T06:01:35;5.33;;;3.13;;
6280;SDS011;3173;48.204;11.612;2023-07-13T06:04:01;5.63;;;2.80;;
6280;SDS011;3173;48.204;11.612;2023-07-13T06:06:28;5.67;;;3.17;;
6280;SDS011;3173;48.204;11.612;2023-07-13T06:08:54;5.13;;;2.70;;
6280;SDS011;3173;48.204;11.612;2023-07-13T06:11:21;4.40;;;2.70;;
6280;SDS011;3173;48.204;11.612;2023-07-13T06:13:47;4.00;;;2.50;;
6280;SDS011;3173;48.204;11.612;2023-07-13T06:16:14;16.10;;;3.30;;
6280;SDS011;3173;48.204;11.612;2023-07-13T06:18:41;5.87;;;3.30;;
6280;SDS011;3173;48.204;11.612;2023-07-13T06:21:12;4.70;;;2.63;;
6280;SDS011;3173;48.204;11.612;2023-07-13T06:23:38;5.17;;;2.70;;
6280;SDS011;3173;48.204;11.612;2023-07-13T06:26:04;8.13;;;3.60;;
6280;SDS011;3173;48.204;11.612;2023-07-13T06:28:31;5.53;;;3.03;;
6280;SDS011;3173;48.204;11.612;2023-07-13T06:30:58;5.77;;;2.83;;
6280;SDS011;3173;48.204;11.612;2023-07-13T06:33:24;7.27;;;2.30;;
6280;SDS011;3173;48.204;11.612;2023-07-13T06:35:51;5.17;;;2.90;;
6280;SDS011;3173;48.204;11.612;2023-07-13T06:38:17;3.43;;;2.30;;
6280;SDS011;3173;48.204;11.612;2023-07-13T06:40:43;6.10;;;2.50;;
6280;SDS011;3173;48.204;11.612;2023-07-13T06:43:10;4.60;;;2.03;;
6280;SDS011;3173;48.204;11.612;2023-07-13T06:48:05;4.40;;;2.70;;
6280;SDS011;3173;48.204;11.612;2023-07-13T06:50:33;10.00;;;2.70;;
6280;SDS011;3173;48.204;11.612;2023-07-13T06:52:59;8.63;;;2.40;;
6280;SDS011;3173;48.204;11.612;2023-07-13T06:55:25;5.20;;;2.23;;
6280;SDS011;3173;48.204;11.612;2023-07-13T06:57:52;5.13;;;2.10;;
6280;SDS011;3173;48.204;11.612;2023-07-13T07:00:18;3.73;;;2.03;;
6280;SDS011;3173;48.204;11.612;2023-07-13T07:02:44;7.43;;;2.97;;
6280;SDS011;3173;48.204;11.612;2023-07-13T07:05:10;6.77;;;2.47;;
6280;SDS011;3173;48.204;11.612;2023-07-13T07:07:36;3.77;;;2.17;;
6280;SDS011;3173;48.204;11.612;2023-07-13T07:10:02;3.80;;;2.10;;
6280;SDS011;3173;48.204;11.612;2023-07-13T07:12:28;4.40;;;1.97;;
6280;SDS011;3173;48.204;11.612;2023-07-13T07:14:55;4.77;;;1.90;;
6280;SDS011;3173;48.204;11.612;2023-07-13T07:17:21;4.83;;;2.37;;
6280;SDS011;3173;48.204;11.612;2023-07-13T07:19:47;6.13;;;2.13;;
6280;SDS011;3173;48.204;11.612;2023-07-13T07:22:13;4.63;;;2.03;;
6280;SDS011;3173;48.204;11.612;2023-07-13T07:24:39;6.07;;;2.27;;
6280;SDS011;3173;48.204;11.612;2023-07-13T07:27:05;10.43;;;3.00;;
6280;SDS011;3173;48.204;11.612;2023-07-13T07:29:32;12.20;;;2.60;;
6280;SDS011;3173;48.204;11.612;2023-07-13T07:31:58;3.10;;;1.77;;
6280;SDS011;3173;48.204;11.612;2023-07-13T07:34:25;4.43;;;1.80;;
6280;SDS011;3173;48.204;11.612;2023-07-13T07:36:51;10.33;;;2.30;;
6280;SDS011;3173;48.204;11.612;2023-07-13T07:39:17;6.50;;;1.60;;
6280;SDS011;3173;48.204;11.612;2023-07-13T07:41:43;6.67;;;2.37;;
6280;SDS011;3173;48.204;11.612;2023-07-13T07:44:10;5.63;;;2.10;;
6280;SDS011;3173;48.204;11.612;2023-07-13T07:46:36;3.10;;;1.77;;
6280;SDS011;3173;48.204;11.612;2023-07-13T07:49:02;3.90;;;1.80;;
6280;SDS011;3173;48.204;11.612;2023-07-13T07:51:28;8.13;;;2.47;;
6280;SDS011;3173;48.204;11.612;2023-07-13T07:53:54;7.07;;;1.70;;
6280;SDS011;3173;48.204;11.612;2023-07-13T07:56:20;4.93;;;1.43;;
6280;SDS011;3173;48.204;11.612;2023-07-13T07:58:47;5.00;;;1.77;;
6280;SDS011;3173;48.204;11.612;2023-07-13T08:01:13;3.63;;;1.67;;
6280;SDS011;3173;48.204;11.612;2023-07-13T08:03:39;6.83;;;2.10;;
6280;SDS011;3173;48.204;11.612;2023-07-13T08:06:05;4.47;;;1.50;;
6280;SDS011;3173;48.204;11.612;2023-07-13T08:08:31;7.43;;;1.80;;
6280;SDS011;3173;48.204;11.612;2023-07-13T08:10:57;4.83;;;1.87;;
6280;SDS011;3173;48.204;11.612;2023-07-13T08:13:23;3.63;;;1.60;;
6280;SDS011;3173;48.204;11.612;2023-07-13T08:15:49;2.90;;;1.40;;
6280;SDS011;3173;48.204;11.612;2023-07-13T08:18:15;7.43;;;2.73;;
6280;SDS011;3173;48.204;11.612;2023-07-13T08:20:42;6.43;;;1.87;;
6280;SDS011;3173;48.204;11.612;2023-07-13T08:23:08;5.57;;;1.50;;
6280;SDS011;3173;48.204;11.612;2023-07-13T08:25:35;3.97;;;1.70;;
6280;SDS011;3173;48.204;11.612;2023-07-13T08:28:02;3.20;;;1.73;;
6280;SDS011;3173;48.204;11.612;2023-07-13T08:30:29;4.97;;;1.90;;
6280;SDS011;3173;48.204;11.612;2023-07-13T08:32:55;6.00;;;2.10;;
6280;SDS011;3173;48.204;11.612;2023-07-13T08:35:21;9.97;;;2.47;;
6280;SDS011;3173;48.204;11.612;2023-07-13T08:37:47;5.00;;;1.60;;
6280;SDS011;3173;48.204;11.612;2023-07-13T08:40:13;7.90;;;2.83;;
6280;SDS011;3173;48.204;11.612;2023-07-13T08:42:42;5.63;;;2.07;;
6280;SDS011;3173;48.204;11.612;2023-07-13T08:45:21;5.67;;;1.67;;
6280;SDS011;3173;48.204;11.612;2023-07-13T08:47:51;5.37;;;1.63;;
6280;SDS011;3173;48.204;11.612;2023-07-13T08:50:19;8.13;;;1.50;;
6280;SDS011;3173;48.204;11.612;2023-07-13T08:52:47;5.30;;;1.60;;
6280;SDS011;3173;48.204;11.612;2023-07-13T08:57:43;8.83;;;1.40;;
6280;SDS011;3173;48.204;11.612;2023-07-13T09:00:11;4.00;;;1.60;;
6280;SDS011;3173;48.204;11.612;2023-07-13T09:02:45;2.83;;;1.40;;
6280;SDS011;3173;48.204;11.612;2023-07-13T09:05:18;4.00;;;1.50;;
6280;SDS011;3173;48.204;11.612;2023-07-13T09:10:41;14.73;;;2.13;;
6280;SDS011;3173;48.204;11.612;2023-07-13T09:15:43;3.77;;;1.60;;
6280;SDS011;3173;48.204;11.612;2023-07-13T09:18:18;6.80;;;1.60;;
6280;SDS011;3173;48.204;11.612;2023-07-13T09:23:29;5.40;;;1.70;;
6280;SDS011;3173;48.204;11.612;2023-07-13T09:26:03;6.30;;;1.80;;
6280;SDS011;3173;48.204;11.612;2023-07-13T09:28:34;6.30;;;1.90;;
6280;SDS011;3173;48.204;11.612;2023-07-13T09:31:04;5.80;;;1.73;;
6280;SDS011;3173;48.204;11.612;2023-07-13T09:33:31;5.50;;;1.50;;
6280;SDS011;3173;48.204;11.612;2023-07-13T09:35:59;6.47;;;1.80;;
6280;SDS011;3173;48.204;11.612;2023-07-13T09:38:29;5.17;;;1.40;;
6280;SDS011;3173;48.204;11.612;2023-07-13T09:43:25;3.80;;;1.30;;
6280;SDS011;3173;48.204;11.612;2023-07-13T09:45:53;4.83;;;1.40;;
6280;SDS011;3173;48.204;11.612;2023-07-13T09:48:20;5.67;;;1.37;;
6280;SDS011;3173;48.204;11.612;2023-07-13T09:50:46;4.50;;;1.30;;
6280;SDS011;3173;48.204;11.612;2023-07-13T09:53:16;4.83;;;1.70;;
6280;SDS011;3173;48.204;11.612;2023-07-13T09:55:44;5.23;;;1.20;;
6280;SDS011;3173;48.204;11.612;2023-07-13T10:00:40;9.87;;;1.43;;
6280;SDS011;3173;48.204;11.612;2023-07-13T10:05:39;5.20;;;1.70;;
6280;SDS011;3173;48.204;11.612;2023-07-13T10:08:09;6.90;;;1.40;;
6280;SDS011;3173;48.204;11.612;2023-07-13T10:10:40;3.57;;;1.40;;
6280;SDS011;3173;48.204;11.612;2023-07-13T10:13:19;6.90;;;1.63;;
6280;SDS011;3173;48.204;11.612;2023-07-13T10:15:49;2.80;;;1.00;;
6280;SDS011;3173;48.204;11.612;2023-07-13T10:18:15;4.00;;;1.30;;
6280;SDS011;3173;48.204;11.612;2023-07-13T10:20:42;4.37;;;1.10;;
6280;SDS011;3173;48.204;11.612;2023-07-13T10:23:11;3.33;;;1.17;;
6280;SDS011;3173;48.204;11.612;2023-07-13T10:25:41;3.30;;;1.27;;
6280;SDS011;3173;48.204;11.612;2023-07-13T10:28:13;2.43;;;1.30;;
6280;SDS011;3173;48.204;11.612;2023-07-13T10:30:42;3.90;;;1.20;;
6280;SDS011;3173;48.204;11.612;2023-07-13T10:33:12;4.23;;;1.23;;
6280;SDS011;3173;48.204;11.612;2023-07-13T10:35:40;3.87;;;1.23;;
6280;SDS011;3173;48.204;11.612;2023-07-13T10:38:11;4.40;;;1.20;;
6280;SDS011;3173;48.204;11.612;2023-07-13T10:40:39;6.60;;;1.23;;
6280;SDS011;3173;48.204;11.612;2023-07-13T10:46:03;3.87;;;1.00;;
6280;SDS011;3173;48.204;11.612;2023-07-13T10:48:31;3.37;;;1.43;;
6280;SDS011;3173;48.204;11.612;2023-07-13T10:50:59;3.90;;;1.27;;
6280;SDS011;3173;48.204;11.612;2023-07-13T10:56:02;5.53;;;1.27;;
6280;SDS011;3173;48.204;11.612;2023-07-13T11:03:33;4.00;;;1.53;;
6280;SDS011;3173;48.204;11.612;2023-07-13T11:18:45;8.80;;;1.10;;
6280;SDS011;3173;48.204;11.612;2023-07-13T11:21:12;2.37;;;1.23;;
6280;SDS011;3173;48.204;11.612;2023-07-13T11:23:42;4.63;;;1.37;;
6280;SDS011;3173;48.204;11.612;2023-07-13T11:28:54;5.00;;;1.03;;
6280;SDS011;3173;48.204;11.612;2023-07-13T11:31:20;5.03;;;1.20;;
6280;SDS011;3173;48.204;11.612;2023-07-13T11:36:21;3.77;;;1.37;;
6280;SDS011;3173;48.204;11.612;2023-07-13T11:43:44;5.13;;;1.00;;
6280;SDS011;3173;48.204;11.612;2023-07-13T11:46:14;4.07;;;1.20;;
6280;SDS011;3173;48.204;11.612;2023-07-13T11:48:47;3.33;;;1.10;;
6280;SDS011;3173;48.204;11.612;2023-07-13T11:51:35;5.17;;;1.20;;
6280;SDS011;3173;48.204;11.612;2023-07-13T11:54:01;2.20;;;1.07;;
6280;SDS011;3173;48.204;11.612;2023-07-13T11:56:28;4.60;;;1.33;;
6280;SDS011;3173;48.204;11.612;2023-07-13T11:58:56;2.70;;;1.27;;
6280;SDS011;3173;48.204;11.612;2023-07-13T12:01:29;5.30;;;1.30;;
6280;SDS011;3173;48.204;11.612;2023-07-13T12:03:58;3.93;;;1.00;;
6280;SDS011;3173;48.204;11.612;2023-07-13T12:06:33;4.93;;;1.27;;
6280;SDS011;3173;48.204;11.612;2023-07-13T12:09:03;3.40;;;1.17;;
6280;SDS011;3173;48.204;11.612;2023-07-13T12:11:29;3.60;;;1.10;;
6280;SDS011;3173;48.204;11.612;2023-07-13T12:13:56;3.17;;;1.00;;
6280;SDS011;3173;48.204;11.612;2023-07-13T12:16:29;3.87;;;1.07;;
6280;SDS011;3173;48.204;11.612;2023-07-13T12:18:57;3.00;;;1.00;;
6280;SDS011;3173;48.204;11.612;2023-07-13T12:21:36;6.03;;;1.43;;
6280;SDS011;3173;48.204;11.612;2023-07-13T12:24:03;6.80;;;1.30;;
6280;SDS011;3173;48.204;11.612;2023-07-13T12:26:30;2.40;;;1.40;;
6280;SDS011;3173;48.204;11.612;2023-07-13T12:28:59;2.60;;;1.40;;
6280;SDS011;3173;48.204;11.612;2023-07-13T12:33:57;3.00;;;1.10;;
6280;SDS011;3173;48.204;11.612;2023-07-13T12:36:23;3.80;;;1.33;;
6280;SDS011;3173;48.204;11.612;2023-07-13T12:38:49;3.03;;;1.23;;
6280;SDS011;3173;48.204;11.612;2023-07-13T12:41:16;2.90;;;0.93;;
6280;SDS011;3173;48.204;11.612;2023-07-13T12:43:42;11.77;;;0.97;;
6280;SDS011;3173;48.204;11.612;2023-07-13T12:46:18;1.50;;;0.90;;
6280;SDS011;3173;48.204;11.612;2023-07-13T12:48:47;5.40;;;1.30;;
6280;SDS011;3173;48.204;11.612;2023-07-13T12:51:14;2.10;;;0.90;;
6280;SDS011;3173;48.204;11.612;2023-07-13T12:53:42;2.07;;;1.00;;
6280;SDS011;3173;48.204;11.612;2023-07-13T12:56:11;3.00;;;1.10;;
6280;SDS011;3173;48.204;11.612;2023-07-13T12:58:41;1.83;;;0.93;;
6280;SDS011;3173;48.204;11.612;2023-07-13T13:01:11;2.93;;;1.00;;
6280;SDS011;3173;48.204;11.612;2023-07-13T13:03:39;3.63;;;1.17;;
6280;SDS011;3173;48.204;11.612;2023-07-13T13:08:33;2.17;;;1.20;;
6280;SDS011;3173;48.204;11.612;2023-07-13T13:11:00;2.93;;;1.20;;
6280;SDS011;3173;48.204;11.612;2023-07-13T13:13:26;4.90;;;1.37;;
6280;SDS011;3173;48.204;11.612;2023-07-13T13:15:53;2.60;;;1.10;;
6280;SDS011;3173;48.204;11.612;2023-07-13T13:18:20;7.13;;;1.30;;
6280;SDS011;3173;48.204;11.612;2023-07-13T13:20:47;6.30;;;2.03;;
6280;SDS011;3173;48.204;11.612;2023-07-13T13:23:13;5.13;;;1.10;;
6280;SDS011;3173;48.204;11.612;2023-07-13T13:25:41;4.17;;;1.70;;
6280;SDS011;3173;48.204;11.612;2023-07-13T13:28:12;3.63;;;1.37;;
6280;SDS011;3173;48.204;11.612;2023-07-13T13:30:39;4.47;;;1.20;;
6280;SDS011;3173;48.204;11.612;2023-07-13T13:33:08;2.70;;;1.00;;
6280;SDS011;3173;48.204;11.612;2023-07-13T13:35:35;4.00;;;1.57;;
6280;SDS011;3173;48.204;11.612;2023-07-13T13:38:01;4.40;;;0.90;;
6280;SDS011;3173;48.204;11.612;2023-07-13T13:40:27;4.70;;;1.20;;
6280;SDS011;3173;48.204;11.612;2023-07-13T13:42:53;3.30;;;1.10;;
6280;SDS011;3173;48.204;11.612;2023-07-13T13:45:21;2.33;;;0.90;;
6280;SDS011;3173;48.204;11.612;2023-07-13T13:47:49;2.20;;;1.00;;
6280;SDS011;3173;48.204;11.612;2023-07-13T13:50:20;5.27;;;1.53;;
6280;SDS011;3173;48.204;11.612;2023-07-13T13:52:47;2.33;;;1.00;;
6280;SDS011;3173;48.204;11.612;2023-07-13T13:57:40;4.90;;;1.00;;
6280;SDS011;3173;48.204;11.612;2023-07-13T14:00:08;4.10;;;1.17;;
6280;SDS011;3173;48.204;11.612;2023-07-13T14:02:39;3.93;;;1.20;;
6280;SDS011;3173;48.204;11.612;2023-07-13T14:05:09;2.37;;;1.03;;
6280;SDS011;3173;48.204;11.612;2023-07-13T14:07:37;2.13;;;1.00;;
6280;SDS011;3173;48.204;11.612;2023-07-13T14:10:05;2.10;;;1.00;;
6280;SDS011;3173;48.204;11.612;2023-07-13T14:12:35;8.53;;;1.00;;
6280;SDS011;3173;48.204;11.612;2023-07-13T14:15:01;3.30;;;1.10;;
6280;SDS011;3173;48.204;11.612;2023-07-13T14:17:27;5.33;;;0.97;;
6280;SDS011;3173;48.204;11.612;2023-07-13T14:19:54;3.13;;;1.30;;
6280;SDS011;3173;48.204;11.612;2023-07-13T14:22:24;2.97;;;1.03;;
6280;SDS011;3173;48.204;11.612;2023-07-13T14:24:53;3.70;;;1.60;;
6280;SDS011;3173;48.204;11.612;2023-07-13T14:27:20;6.80;;;1.30;;
6280;SDS011;3173;48.204;11.612;2023-07-13T14:29:46;2.70;;;1.10;;
6280;SDS011;3173;48.204;11.612;2023-07-13T14:32:12;8.13;;;1.90;;
6280;SDS011;3173;48.204;11.612;2023-07-13T14:34:39;2.23;;;0.90;;
6280;SDS011;3173;48.204;11.612;2023-07-13T14:37:05;7.90;;;1.33;;
6280;SDS011;3173;48.204;11.612;2023-07-13T14:39:37;5.03;;;0.90;;
6280;SDS011;3173;48.204;11.612;2023-07-13T14:42:04;3.10;;;1.20;;
6280;SDS011;3173;48.204;11.612;2023-07-13T14:44:30;2.90;;;1.20;;
6280;SDS011;3173;48.204;11.612;2023-07-13T14:47:01;3.77;;;1.20;;
6280;SDS011;3173;48.204;11.612;2023-07-13T14:52:00;6.60;;;1.40;;
6280;SDS011;3173;48.204;11.612;2023-07-13T14:54:27;2.47;;;1.23;;
6280;SDS011;3173;48.204;11.612;2023-07-13T14:56:53;2.93;;;1.10;;
6280;SDS011;3173;48.204;11.612;2023-07-13T14:59:19;5.60;;;1.10;;
6280;SDS011;3173;48.204;11.612;2023-07-13T15:01:46;2.73;;;1.40;;
6280;SDS011;3173;48.204;11.612;2023-07-13T15:04:12;3.40;;;1.20;;
6280;SDS011;3173;48.204;11.612;2023-07-13T15:06:58;2.87;;;1.20;;
6280;SDS011;3173;48.204;11.612;2023-07-13T15:09:25;6.60;;;1.10;;
6280;SDS011;3173;48.204;11.612;2023-07-13T15:11:57;4.30;;;1.30;;
6280;SDS011;3173;48.204;11.612;2023-07-13T15:14:24;2.50;;;1.23;;
6280;SDS011;3173;48.204;11.612;2023-07-13T15:16:52;3.10;;;1.27;;
6280;SDS011;3173;48.204;11.612;2023-07-13T15:19:19;3.67;;;2.57;;
6280;SDS011;3173;48.204;11.612;2023-07-13T15:21:46;1.87;;;1.40;;
6280;SDS011;3173;48.204;11.612;2023-07-13T15:24:12;2.03;;;1.10;;
6280;SDS011;3173;48.204;11.612;2023-07-13T15:26:39;4.20;;;1.40;;
6280;SDS011;3173;48.204;11.612;2023-07-13T15:29:08;9.33;;;1.57;;
6280;SDS011;3173;48.204;11.612;2023-07-13T15:31:34;2.73;;;1.77;;
6280;SDS011;3173;48.204;11.612;2023-07-13T15:34:03;5.90;;;1.40;;
6280;SDS011;3173;48.204;11.612;2023-07-13T15:36:33;5.10;;;1.70;;
6280;SDS011;3173;48.204;11.612;2023-07-13T15:38:59;3.77;;;1.37;;
6280;SDS011;3173;48.204;11.612;2023-07-13T15:41:26;3.30;;;1.60;;
6280;SDS011;3173;48.204;11.612;2023-07-13T15:43:54;4.37;;;1.97;;
6280;SDS011;3173;48.204;11.612;2023-07-13T15:46:23;7.90;;;2.57;;
6280;SDS011;3173;48.204;11.612;2023-07-13T15:48:49;3.60;;;1.23;;
6280;SDS011;3173;48.204;11.612;2023-07-13T15:51:24;3.30;;;1.30;;
6280;SDS011;3173;48.204;11.612;2023-07-13T15:53:52;4.53;;;1.07;;
6280;SDS011;3173;48.204;11.612;2023-07-13T15:56:21;2.67;;;1.17;;
6280;SDS011;3173;48.204;11.612;2023-07-13T15:58:47;2.67;;;1.10;;
6280;SDS011;3173;48.204;11.612;2023-07-13T16:01:14;5.50;;;1.67;;
6280;SDS011;3173;48.204;11.612;2023-07-13T16:03:40;6.83;;;1.43;;
6280;SDS011;3173;48.204;11.612;2023-07-13T16:06:12;4.10;;;1.63;;
6280;SDS011;3173;48.204;11.612;2023-07-13T16:08:38;5.33;;;1.23;;
6280;SDS011;3173;48.204;11.612;2023-07-13T16:11:07;3.40;;;1.03;;